Time;durP1;ratioP1;P1;durP2;ratioP2;P2;SDS_P1;SDS_P2;PMS_P1;PMS_P2;Temp;Humidity;BMP_temperature;BMP_pressure;BME280_temperature;BME280_humidity;BME280_pressure;Samples;Min_cycle;Max_cycle;Signal;HPM_P1;HPM_P2
2022/10/07 00:00:00;;;;;;;12.47;7.42;;;;;;;10.03;100.00;100527.17;1654069;86;21161;-72
2022/10/07 00:02:27;;;;;;;12.75;7.20;;;;;;;10.00;100.00;100528.30;1653918;86;20928;-73
2022/10/07 00:04:53;;;;;;;10.68;7.53;;;;;;;9.94;100.00;100529.71;1654075;86;20911;-73
2022/10/07 00:07:21;;;;;;;14.65;7.60;;;;;;;9.90;100.00;100530.58;1654054;86;20995;-73
2022/10/07 00:09:48;;;;;;;10.95;6.92;;;;;;;9.85;100.00;100527.88;1654102;86;21507;-73
2022/10/07 00:12:14;;;;;;;12.73;6.67;;;;;;;9.79;100.00;100524.38;1654035;86;21081;-72
2022/10/07 00:14:42;;;;;;;8.90;6.40;;;;;;;9.76;100.00;100529.63;1654038;86;21016;-72
2022/10/07 00:17:10;;;;;;;12.37;6.72;;;;;;;9.72;100.00;100530.74;1654270;86;20963;-73
2022/10/07 00:19:37;;;;;;;9.38;7.08;;;;;;;9.69;100.00;100523.09;1653997;86;21455;-73
2022/10/07 00:22:04;;;;;;;15.50;7.67;;;;;;;9.65;100.00;100528.87;1654131;86;20955;-73
2022/10/07 00:24:30;;;;;;;15.23;6.58;;;;;;;9.62;100.00;100535.48;1654272;86;21072;-73
2022/10/07 00:26:57;;;;;;;11.10;6.47;;;;;;;9.60;100.00;100537.14;1654021;86;20916;-72
2022/10/07 00:29:24;;;;;;;10.23;6.95;;;;;;;9.58;100.00;100533.86;1658657;86;21522;-72
2022/10/07 00:31:51;;;;;;;12.45;6.62;;;;;;;9.56;100.00;100542.37;1658825;86;21030;-72
2022/10/07 00:34:19;;;;;;;13.58;6.83;;;;;;;9.53;100.00;100538.83;1658785;86;20946;-72
2022/10/07 00:36:45;;;;;;;10.85;6.87;;;;;;;9.52;100.00;100544.59;1659096;86;21085;-72
2022/10/07 00:39:14;;;;;;;17.45;7.15;;;;;;;9.51;100.00;100537.48;1658810;86;20982;-73
2022/10/07 00:41:52;;;;;;;8.45;6.17;;;;;;;9.49;100.00;100542.42;1658772;86;20963;-73
2022/10/07 00:44:41;;;;;;;9.05;6.15;;;;;;;9.46;100.00;100541.07;1658493;86;20935;-73
2022/10/07 00:47:26;;;;;;;10.68;6.55;;;;;;;9.43;100.00;100545.75;1654860;86;20935;-72
2022/10/07 00:50:06;;;;;;;13.90;6.83;;;;;;;9.40;100.00;100554.53;1652015;86;21040;-71
2022/10/07 00:52:50;;;;;;;13.05;6.83;;;;;;;9.36;100.00;100555.38;1651215;86;21562;-72
2022/10/07 00:55:20;;;;;;;10.18;6.53;;;;;;;9.33;100.00;100558.14;1652315;86;21407;-72
2022/10/07 00:57:47;;;;;;;12.65;7.08;;;;;;;9.35;100.00;100557.30;1652117;87;20908;-72
2022/10/07 01:00:15;;;;;;;10.72;6.50;;;;;;;9.37;100.00;100557.84;1652167;86;20999;-72
2022/10/07 01:02:43;;;;;;;10.80;6.80;;;;;;;9.41;100.00;100563.58;1631223;87;21570;-72
2022/10/07 01:05:09;;;;;;;12.85;6.20;;;;;;;9.44;100.00;100563.01;1652065;87;20904;-72
2022/10/07 01:07:37;;;;;;;13.32;6.85;;;;;;;9.46;100.00;100563.00;1652048;87;21440;-72
2022/10/07 01:10:05;;;;;;;16.30;6.90;;;;;;;9.53;100.00;100566.79;1652051;87;20998;-72
2022/10/07 01:13:21;;;;;;;14.23;7.97;;;;;;;9.63;100.00;100572.77;1652098;87;21010;-72
2022/10/07 01:16:03;;;;;;;11.33;6.33;;;;;;;9.62;100.00;100566.46;1652064;86;21108;-72
2022/10/07 01:18:39;;;;;;;15.63;6.60;;;;;;;9.60;100.00;100573.59;1631394;87;21314;-72
2022/10/07 01:21:33;;;;;;;11.70;6.33;;;;;;;9.54;100.00;100577.47;1652191;86;20932;-72
2022/10/07 01:24:26;;;;;;;10.58;6.37;;;;;;;9.48;100.00;100581.34;1652096;86;20947;-73
2022/10/07 01:27:00;;;;;;;7.70;6.03;;;;;;;9.42;100.00;100575.63;1652440;86;21059;-72
2022/10/07 01:29:37;;;;;;;9.35;6.58;;;;;;;9.34;100.00;100580.88;1645226;87;21169;-72
2022/10/07 01:32:43;;;;;;;9.40;6.67;;;;;;;9.30;100.00;100581.17;1645093;87;20961;-72
2022/10/07 01:35:14;;;;;;;14.53;6.55;;;;;;;9.24;100.00;100580.41;1645323;87;21000;-72
2022/10/07 01:37:48;;;;;;;15.28;8.18;;;;;;;9.18;100.00;100580.98;1645447;87;21017;-72
2022/10/07 01:40:19;;;;;;;12.88;7.45;;;;;;;9.14;100.00;100584.56;1645252;87;20986;-72
2022/10/07 01:42:46;;;;;;;16.20;7.50;;;;;;;9.10;100.00;100584.31;1645727;87;21453;-72
2022/10/07 01:45:19;;;;;;;12.58;7.00;;;;;;;9.07;100.00;100587.61;1645081;87;20954;-72
2022/10/07 01:47:43;;;;;;;11.38;7.40;;;;;;;9.01;100.00;100590.09;1644796;87;21026;-71
2022/10/07 01:50:14;;;;;;;20.80;7.28;;;;;;;8.99;100.00;100587.37;1645167;87;21468;-71
2022/10/07 01:53:03;;;;;;;14.15;7.00;;;;;;;8.92;100.00;100583.55;1645492;87;21000;-72
2022/10/07 01:55:45;;;;;;;14.75;7.00;;;;;;;8.89;100.00;100586.85;1645301;87;21065;-73
2022/10/07 01:58:49;;;;;;;12.53;7.03;;;;;;;8.83;100.00;100583.31;1607513;87;20965;-72
2022/10/07 02:01:22;;;;;;;14.60;6.35;;;;;;;8.76;100.00;100593.73;1645180;87;20910;-71
2022/10/07 02:04:31;;;;;;;11.20;7.10;;;;;;;8.72;100.00;100595.39;1645228;87;20918;-72
2022/10/07 02:07:23;;;;;;;13.58;6.83;;;;;;;8.69;100.00;100593.20;1645599;87;20946;-71
2022/10/07 02:10:02;;;;;;;13.83;7.60;;;;;;;8.71;100.00;100596.48;1645230;87;22000;-72
2022/10/07 02:12:44;;;;;;;14.43;7.97;;;;;;;8.74;100.00;100597.30;1645163;87;21000;-73
2022/10/07 02:15:15;;;;;;;13.05;6.95;;;;;;;8.81;100.00;100603.30;1645329;87;21369;-72
2022/10/07 02:17:52;;;;;;;12.10;6.20;;;;;;;8.88;100.00;100606.57;1645198;87;21014;-72
2022/10/07 02:20:22;;;;;;;9.68;7.53;;;;;;;8.92;100.00;100608.20;1645258;87;20909;-73
2022/10/07 02:22:49;;;;;;;14.18;7.37;;;;;;;8.94;100.00;100614.22;1645465;87;21143;-73
2022/10/07 02:25:16;;;;;;;11.33;7.78;;;;;;;8.96;100.00;100614.77;1645185;87;20913;-72
2022/10/07 02:27:44;;;;;;;16.42;8.18;;;;;;;8.98;100.00;100618.05;1646177;86;21536;-73
2022/10/07 02:30:14;;;;;;;15.43;8.98;;;;;;;9.01;100.00;100627.62;1645661;86;20881;-72
2022/10/07 02:32:47;;;;;;;11.97;8.25;;;;;;;9.02;100.00;100623.23;1647740;87;21512;-71
2022/10/07 02:35:43;;;;;;;15.00;7.92;;;;;;;9.05;100.00;100630.08;1648129;87;21148;-73
2022/10/07 02:38:13;;;;;;;17.15;10.68;;;;;;;9.07;100.00;100632.80;1647694;87;20906;-73
2022/10/07 02:41:06;;;;;;;16.67;9.25;;;;;;;9.15;100.00;100636.34;1648014;87;21389;-73
2022/10/07 02:43:37;;;;;;;16.07;10.15;;;;;;;9.25;100.00;100635.45;1647729;87;20985;-73
2022/10/07 02:46:21;;;;;;;16.30;9.50;;;;;;;9.32;100.00;100632.41;1647334;86;20910;-73
2022/10/07 02:49:01;;;;;;;15.03;10.32;;;;;;;9.37;100.00;100636.49;1646401;87;22185;-73
2022/10/07 02:51:53;;;;;;;15.08;9.20;;;;;;;9.42;100.00;100638.66;1648025;87;20922;-73
2022/10/07 02:54:24;;;;;;;13.43;8.98;;;;;;;9.47;100.00;100639.19;1645535;87;20925;-74
2022/10/07 02:56:51;;;;;;;16.25;9.38;;;;;;;9.48;100.00;100639.45;1622715;87;21102;-73
2022/10/07 02:59:18;;;;;;;12.73;7.78;;;;;;;9.50;100.00;100642.73;1616521;88;20947;-74
2022/10/07 03:01:47;;;;;;;16.20;8.18;;;;;;;9.56;100.00;100642.43;1619446;87;21549;-73
2022/10/07 03:04:14;;;;;;;13.68;7.62;;;;;;;9.70;100.00;100646.74;1641139;87;20926;-74
2022/10/07 03:06:42;;;;;;;12.33;8.08;;;;;;;9.87;100.00;100649.90;1641074;87;21068;-73
2022/10/07 03:09:09;;;;;;;13.32;8.90;;;;;;;10.03;100.00;100653.91;1635031;87;20964;-73
2022/10/07 03:11:38;;;;;;;10.78;7.78;;;;;;;10.13;100.00;100660.15;1628406;88;20923;-73
2022/10/07 03:14:06;;;;;;;14.35;8.63;;;;;;;10.21;100.00;100656.01;1628589;88;22574;-73
2022/10/07 03:16:35;;;;;;;13.38;7.92;;;;;;;10.25;100.00;100657.08;1628517;88;20975;-73
2022/10/07 03:19:02;;;;;;;16.67;7.95;;;;;;;10.29;100.00;100663.63;1628321;88;21006;-72
2022/10/07 03:21:33;;;;;;;18.98;9.00;;;;;;;10.36;100.00;100663.30;1628290;86;20939;-72
2022/10/07 03:24:03;;;;;;;17.87;7.67;;;;;;;10.45;100.00;100661.55;1628645;88;20916;-73
2022/10/07 03:26:29;;;;;;;12.13;7.33;;;;;;;10.49;100.00;100666.73;1628514;86;21188;-73
2022/10/07 03:28:57;;;;;;;18.15;9.18;;;;;;;10.53;100.00;100670.55;1617926;87;20908;-73
2022/10/07 03:31:25;;;;;;;14.95;8.88;;;;;;;10.58;100.00;100667.20;1597049;87;21008;-73
2022/10/07 03:33:55;;;;;;;13.28;8.45;;;;;;;10.61;100.00;100671.84;1641242;87;20933;-73
2022/10/07 03:36:23;;;;;;;16.82;8.48;;;;;;;10.65;100.00;100671.53;1615971;86;21515;-73
2022/10/07 03:38:50;;;;;;;13.85;8.75;;;;;;;10.69;100.00;100673.97;1623574;88;21168;-74
2022/10/07 03:41:18;;;;;;;18.15;8.38;;;;;;;10.71;100.00;100673.95;1619987;88;20919;-74
2022/10/07 03:43:45;;;;;;;13.53;8.28;;;;;;;10.73;100.00;100667.61;1618111;88;21094;-74
2022/10/07 03:46:14;;;;;;;13.62;8.58;;;;;;;10.75;100.00;100671.44;1621805;87;20926;-73
2022/10/07 03:48:41;;;;;;;12.00;8.80;;;;;;;10.77;100.00;100671.97;1621458;88;20974;-73
2022/10/07 03:51:08;;;;;;;13.22;8.48;;;;;;;10.78;100.00;100681.30;1621537;88;21772;-73
2022/10/07 03:53:37;;;;;;;15.28;8.35;;;;;;;10.79;100.00;100679.37;1621594;87;20915;-74
2022/10/07 03:56:05;;;;;;;13.35;8.80;;;;;;;10.78;100.00;100675.80;1621273;88;21501;-74
2022/10/07 03:58:31;;;;;;;14.33;8.43;;;;;;;10.78;100.00;100684.59;1611499;88;20986;-73
2022/10/07 04:01:09;;;;;;;20.88;8.53;;;;;;;10.76;100.00;100684.06;1594907;88;21133;-73
2022/10/07 04:03:37;;;;;;;12.55;8.80;;;;;;;10.74;100.00;100681.61;1594491;89;21576;-75
2022/10/07 04:06:04;;;;;;;12.93;8.90;;;;;;;10.73;100.00;100688.77;1617471;88;21017;-73
2022/10/07 04:08:33;;;;;;;9.60;7.45;;;;;;;10.72;100.00;100688.50;1615547;88;21018;-73
2022/10/07 04:11:01;;;;;;;15.68;7.72;;;;;;;10.70;100.00;100694.83;1617013;88;20937;-73
2022/10/07 04:13:29;;;;;;;17.82;8.25;;;;;;;10.68;100.00;100698.42;1618914;88;20966;-73
2022/10/07 04:15:57;;;;;;;10.75;7.22;;;;;;;10.64;100.00;100700.92;1618247;88;21179;-73
2022/10/07 04:18:25;;;;;;;11.08;7.55;;;;;;;10.62;100.00;100705.06;1617765;88;20926;-73
2022/10/07 04:20:52;;;;;;;11.25;8.00;;;;;;;10.60;100.00;100701.23;1614060;88;21017;-73
2022/10/07 04:23:19;;;;;;;14.90;7.65;;;;;;;10.58;100.00;100707.02;1616017;88;21449;-73
2022/10/07 04:25:46;;;;;;;13.35;7.15;;;;;;;10.57;100.00;100706.75;1616117;88;20946;-73
2022/10/07 04:28:20;;;;;;;13.07;7.77;;;;;;;10.55;100.00;100710.89;1618234;87;22142;-73
2022/10/07 04:30:50;;;;;;;16.52;7.35;;;;;;;10.54;100.00;100712.81;1590143;89;20916;-73
2022/10/07 04:33:20;;;;;;;9.58;7.12;;;;;;;10.55;100.00;100710.33;1607077;88;21000;-73
2022/10/07 04:35:48;;;;;;;10.70;7.22;;;;;;;10.57;100.00;100716.36;1606495;89;20904;-73
2022/10/07 04:38:16;;;;;;;11.97;7.62;;;;;;;10.59;100.00;100711.95;1607154;89;21002;-73
2022/10/07 04:40:48;;;;;;;13.13;7.87;;;;;;;10.63;100.00;100716.31;1611971;88;21140;-73
2022/10/07 04:43:19;;;;;;;11.55;7.72;;;;;;;10.66;100.00;100717.94;1607186;88;20904;-72
2022/10/07 04:45:51;;;;;;;15.32;7.22;;;;;;;10.69;100.00;100721.48;1607448;89;20920;-73
2022/10/07 04:48:21;;;;;;;13.72;6.72;;;;;;;10.72;100.00;100725.02;1607346;89;21439;-73
2022/10/07 04:50:50;;;;;;;13.35;7.15;;;;;;;10.76;100.00;100725.27;1607251;88;20884;-73
2022/10/07 04:53:16;;;;;;;12.58;6.62;;;;;;;10.78;100.00;100727.99;1607233;89;21724;-74
2022/10/07 04:55:50;;;;;;;19.25;7.37;;;;;;;10.82;100.00;100729.61;1606579;88;20975;-72
2022/10/07 04:58:17;;;;;;;14.25;6.53;;;;;;;10.86;100.00;100726.00;1610322;88;20960;-72
2022/10/07 05:00:49;;;;;;;15.35;6.65;;;;;;;10.90;100.00;100733.92;1605546;88;20960;-77
2022/10/07 05:03:18;;;;;;;15.88;6.78;;;;;;;10.97;100.00;100732.77;1581835;89;21454;-81
2022/10/07 05:05:48;;;;;;;10.45;6.62;;;;;;;11.05;100.00;100732.93;1566081;90;21797;-76
2022/10/07 05:08:19;;;;;;;11.93;6.40;;;;;;;11.08;100.00;100740.59;1582013;90;21435;-81
2022/10/07 05:10:46;;;;;;;14.68;6.60;;;;;;;11.08;100.00;100739.22;1564222;90;21122;-87
2022/10/07 05:13:15;;;;;;;17.52;7.12;;;;;;;11.11;100.00;100742.77;1581893;90;21532;-83
2022/10/07 05:15:52;;;;;;;12.55;6.35;;;;;;;11.14;100.00;100742.73;1581915;89;21082;-79
2022/10/07 05:18:20;;;;;;;14.05;6.05;;;;;;;11.16;100.00;100742.71;1582130;90;21149;-75
2022/10/07 05:20:48;;;;;;;8.90;5.72;;;;;;;11.23;100.00;100747.31;1581798;90;20919;-76
2022/10/07 05:23:17;;;;;;;10.85;5.53;;;;;;;11.31;100.00;100751.36;1581904;89;20915;-73
2022/10/07 05:25:44;;;;;;;9.13;4.00;;;;;;;11.42;100.00;100753.44;1591381;88;21027;-76
2022/10/07 05:28:14;;;;;;;9.63;4.67;;;;;;;11.53;100.00;100756.34;1608253;88;21035;-74
2022/10/07 05:30:41;;;;;;;13.70;5.47;;;;;;;11.61;100.00;100755.67;1657847;86;21119;-73
2022/10/07 05:33:09;;;;;;;11.40;4.87;;;;;;;11.67;100.00;100754.49;1637650;85;20912;-73
2022/10/07 05:35:37;;;;;;;15.05;4.42;;;;;;;11.69;100.00;100760.52;1653968;86;20939;-73
2022/10/07 05:38:05;;;;;;;14.35;4.95;;;;;;;11.71;100.00;100757.48;1653977;86;20994;-75
2022/10/07 05:40:32;;;;;;;7.72;4.78;;;;;;;11.71;100.00;100757.48;1654353;86;20950;-74
2022/10/07 05:42:58;;;;;;;9.28;4.67;;;;;;;11.75;100.00;100762.09;1653995;86;21234;-75
2022/10/07 05:45:26;;;;;;;14.83;5.20;;;;;;;11.76;100.00;100766.48;1654786;86;21020;-76
2022/10/07 05:47:53;;;;;;;9.80;5.03;;;;;;;11.80;100.00;100766.20;1654957;85;20947;-86
2022/10/07 05:50:24;;;;;;;10.98;4.80;;;;;;;11.83;100.00;100769.73;1655615;86;21003;-78
2022/10/07 05:52:51;;;;;;;14.73;5.15;;;;;;;11.88;100.00;100775.17;1658181;86;21042;-72
2022/10/07 05:55:18;;;;;;;11.30;5.35;;;;;;;11.92;100.00;100778.16;1653830;86;21116;-72
2022/10/07 05:57:46;;;;;;;13.68;4.47;;;;;;;11.94;100.00;100777.30;1653782;86;21434;-71
2022/10/07 06:00:14;;;;;;;16.90;4.70;;;;;;;11.98;100.00;100781.66;1654302;86;20939;-80
2022/10/07 06:02:42;;;;;;;10.45;4.28;;;;;;;12.01;100.00;100781.08;1655218;85;20983;-77
2022/10/07 06:05:13;;;;;;;13.70;5.10;;;;;;;12.05;100.00;100785.69;1655484;86;20908;-83
2022/10/07 06:07:40;;;;;;;7.17;4.55;;;;;;;12.10;100.00;100783.43;1647044;85;21217;-84
2022/10/07 06:13:06;;;;;;;13.30;3.75;;;;;;;12.20;100.00;100788.77;1627634;88;20924;-85
2022/10/07 06:15:37;;;;;;;10.95;3.70;;;;;;;12.28;100.00;100796.92;1627978;87;20946;-79
2022/10/07 06:18:05;;;;;;;11.25;3.75;;;;;;;12.35;100.00;100796.00;1636372;86;20979;-78
2022/10/07 06:20:33;;;;;;;11.10;4.37;;;;;;;12.41;100.00;100798.39;1623736;88;21545;-82
2022/10/07 06:23:00;;;;;;;13.13;3.37;;;;;;;12.47;100.00;100802.70;1615930;88;20965;-80
2022/10/07 06:25:27;;;;;;;8.93;3.50;;;;;;;12.52;100.00;100806.76;1619484;87;20915;-75
2022/10/07 06:27:56;;;;;;;16.62;2.95;;;;;;;12.59;100.00;100811.08;1617636;87;21030;-73
2022/10/07 06:30:24;;;;;;;12.18;3.05;;;;;;;12.67;100.00;100813.16;1582743;89;20983;-77
2022/10/07 06:32:51;;;;;;;6.90;3.20;;;;;;;12.76;100.00;100812.16;1572823;89;21102;-74
2022/10/07 06:35:20;;;;;;;11.55;3.47;;;;;;;12.86;100.00;100813.37;1561087;91;20980;-73
2022/10/07 06:37:47;;;;;;;18.00;3.75;;;;;;;12.95;100.00;100806.62;1589004;89;21053;-73
2022/10/07 06:40:14;;;;;;;6.75;3.08;;;;;;;13.06;100.00;100819.67;1586633;88;21574;-74
2022/10/07 06:42:41;;;;;;;13.80;3.30;;;;;;;13.20;100.00;100817.25;1580376;90;21010;-87
2022/10/07 06:45:22;;;;;;;9.25;2.80;;;;;;;13.38;100.00;100809.20;1579356;88;21257;-71
2022/10/07 06:47:51;;;;;;;8.98;3.17;;;;;;;13.82;100.00;100814.15;1581559;89;20884;-74
2022/10/07 06:50:20;;;;;;;12.03;3.00;;;;;;;14.39;100.00;100804.91;1560953;88;20956;-75
2022/10/07 06:52:47;;;;;;;9.08;2.85;;;;;;;15.03;96.60;100806.97;1570482;90;20949;-75
2022/10/07 06:55:14;;;;;;;11.80;2.95;;;;;;;15.60;92.45;100812.11;1598510;89;20998;-74
2022/10/07 06:57:42;;;;;;;12.45;2.65;;;;;;;16.06;88.48;100806.09;1598066;88;21556;-74
2022/10/07 07:00:11;;;;;;;9.13;2.58;;;;;;;16.50;85.27;100811.94;1597996;89;21605;-72
2022/10/07 07:02:38;;;;;;;11.45;2.92;;;;;;;16.91;80.73;100812.61;1598112;89;20915;-75
2022/10/07 07:05:07;;;;;;;9.25;2.77;;;;;;;17.26;78.41;100807.83;1597964;89;20935;-77
2022/10/07 07:07:35;;;;;;;7.60;2.40;;;;;;;17.57;77.62;100804.20;1598088;89;21509;-71
2022/10/07 07:10:04;;;;;;;7.65;2.22;;;;;;;17.85;72.27;100812.94;1598037;88;21548;-78
2022/10/07 07:12:33;;;;;;;7.27;2.20;;;;;;;18.00;73.36;100812.92;1598200;89;20966;-78
2022/10/07 07:15:01;;;;;;;10.60;2.65;;;;;;;18.23;72.17;100807.32;1598160;89;20876;-80
2022/10/07 07:17:28;;;;;;;11.08;2.55;;;;;;;18.46;72.20;100808.64;1597906;89;21038;-81
2022/10/07 07:19:57;;;;;;;7.08;2.22;;;;;;;18.76;68.06;100805.22;1597922;89;20938;-80
2022/10/07 07:22:24;;;;;;;9.50;2.33;;;;;;;18.80;65.65;100806.75;1598018;89;21239;-73
2022/10/07 07:24:52;;;;;;;7.35;2.67;;;;;;;18.87;65.10;100807.02;1597808;88;20986;-79
2022/10/07 07:27:21;;;;;;;7.75;2.45;;;;;;;19.00;64.89;100798.95;1594835;88;20884;-84
2022/10/07 07:29:47;;;;;;;8.98;2.15;;;;;;;19.26;64.50;100802.84;1641838;85;21560;-74
2022/10/07 07:32:14;;;;;;;7.83;2.33;;;;;;;19.51;62.88;100800.12;1658845;85;20998;-83
2022/10/07 07:34:42;;;;;;;6.58;2.22;;;;;;;19.58;62.59;100795.64;1658773;86;21155;-83
2022/10/07 07:37:11;;;;;;;14.45;2.67;;;;;;;19.79;60.26;100799.11;1658718;86;21564;-82
2022/10/07 07:39:41;;;;;;;7.72;2.67;;;;;;;19.93;60.87;100805.73;1658882;86;21014;-77
2022/10/07 07:42:09;;;;;;;9.28;2.90;;;;;;;20.11;61.03;100801.56;1658799;86;20959;-79
2022/10/07 07:44:37;;;;;;;11.90;2.17;;;;;;;20.24;58.83;100799.55;1658854;86;20942;-78
2022/10/07 07:47:07;;;;;;;7.72;1.75;;;;;;;20.37;57.01;100801.73;1657787;85;21146;-75
2022/10/07 07:49:34;;;;;;;5.72;1.80;;;;;;;20.29;56.94;100797.91;1657562;86;21022;-78
2022/10/07 07:52:02;;;;;;;12.58;2.25;;;;;;;20.31;56.51;100801.74;1657993;86;21105;-83
2022/10/07 07:54:32;;;;;;;6.95;1.65;;;;;;;20.44;56.78;100801.41;1659996;86;20967;-73
2022/10/07 07:57:00;;;;;;;11.20;2.10;;;;;;;20.45;51.85;100803.61;1658810;86;20955;-75
2022/10/07 07:59:31;;;;;;;5.05;1.70;;;;;;;20.18;52.28;100798.19;1658814;86;21156;-74
2022/10/07 08:01:58;;;;;;;3.55;1.50;;;;;;;20.03;52.28;100803.07;1658655;86;20904;-75
2022/10/07 08:04:25;;;;;;;2.70;1.47;;;;;;;20.07;51.25;100796.45;1658692;86;20951;-76
2022/10/07 08:06:54;;;;;;;6.75;1.77;;;;;;;20.16;51.59;100801.91;1658767;86;20923;-78
2022/10/07 08:09:23;;;;;;;6.00;2.10;;;;;;;20.14;52.15;100795.87;1659082;86;20883;-79
2022/10/07 08:11:56;;;;;;;7.03;1.90;;;;;;;20.27;53.14;100794.66;1639937;86;21265;-84
2022/10/07 08:14:24;;;;;;;5.95;1.70;;;;;;;20.45;52.35;100802.22;1661339;86;20962;-85
2022/10/07 08:16:56;;;;;;;8.43;1.80;;;;;;;20.71;51.30;100801.22;1661389;86;20975;-76
2022/10/07 08:19:22;;;;;;;5.78;2.35;;;;;;;20.90;49.93;100782.41;1661246;86;21090;-75
2022/10/07 08:21:55;;;;;;;9.08;2.80;;;;;;;21.01;51.36;100786.31;1658847;86;21515;-80
2022/10/07 08:24:24;;;;;;;5.85;2.50;;;;;;;21.32;52.29;100780.60;1658802;86;21138;-79
2022/10/07 08:26:54;;;;;;;6.62;2.40;;;;;;;21.52;51.77;100780.91;1658217;86;21058;-79
2022/10/07 08:29:22;;;;;;;5.45;1.72;;;;;;;21.75;51.33;100783.30;1656785;85;21579;-76
2022/10/07 08:31:48;;;;;;;6.35;1.87;;;;;;;21.91;47.20;100776.31;1653691;85;21142;-79
2022/10/07 08:34:15;;;;;;;9.88;1.92;;;;;;;21.99;47.30;100781.45;1653797;86;21081;-76
2022/10/07 08:36:46;;;;;;;7.25;1.82;;;;;;;22.14;48.57;100780.66;1644497;86;21155;-84
2022/10/07 08:39:13;;;;;;;5.12;1.60;;;;;;;22.45;47.62;100778.95;1644829;86;21041;-84
2022/10/07 08:42:14;;;;;;;6.25;1.70;;;;;;;22.58;44.48;100777.02;1644679;87;21016;-87
2022/10/07 08:44:46;;;;;;;5.42;1.40;;;;;;;22.65;44.22;100781.97;1644487;87;21017;-90
2022/10/07 08:47:35;;;;;;;5.53;1.80;;;;;;;22.63;41.30;100785.72;1644647;87;21037;-76
2022/10/07 08:50:11;;;;;;;6.25;1.37;;;;;;;22.59;41.97;100781.45;1644119;85;21861;-87
2022/10/07 08:52:52;;;;;;;3.85;1.07;;;;;;;22.73;41.63;100779.54;1644033;87;21606;-87
2022/10/07 08:55:34;;;;;;;5.35;1.50;;;;;;;22.86;39.51;100765.64;1643048;87;21025;-75
2022/10/07 08:58:21;;;;;;;6.60;1.67;;;;;;;22.78;40.15;100772.25;1640911;86;21068;-78
2022/10/07 09:01:07;;;;;;;6.12;1.70;;;;;;;22.88;41.55;100764.69;1638835;87;21179;-76
2022/10/07 09:04:21;;;;;;;6.70;1.40;;;;;;;23.20;41.82;100773.69;1639401;87;21130;-76
2022/10/07 09:07:11;;;;;;;11.68;1.85;;;;;;;23.47;40.69;100768.17;1641056;86;21048;-76
2022/10/07 09:10:01;;;;;;;6.70;1.60;;;;;;;23.68;39.29;100762.97;1645211;86;21056;-76
2022/10/07 09:12:40;;;;;;;5.60;1.60;;;;;;;23.69;38.98;100765.96;1643185;86;21075;-83
2022/10/07 09:15:20;;;;;;;4.15;2.10;;;;;;;23.73;40.02;100764.62;1646680;86;21046;-84
2022/10/07 09:17:55;;;;;;;7.10;1.45;;;;;;;23.84;39.50;100762.80;1627525;87;21291;-73
2022/10/07 09:20:30;;;;;;;6.00;1.90;;;;;;;23.92;39.58;100764.53;1639428;87;20980;-72
2022/10/07 09:22:57;;;;;;;7.67;1.52;;;;;;;24.06;39.46;100768.97;1639096;87;21040;-72
2022/10/07 09:25:29;;;;;;;6.78;1.67;;;;;;;23.98;37.22;100760.22;1643490;87;21540;-87
2022/10/07 09:27:56;;;;;;;5.03;1.60;;;;;;;23.67;38.58;100764.97;1644694;86;21100;-80
2022/10/07 09:30:24;;;;;;;3.30;1.47;;;;;;;23.56;38.79;100766.77;1646537;86;21889;-82
2022/10/07 09:32:53;;;;;;;4.60;1.37;;;;;;;23.60;38.33;100766.24;1652904;85;21043;-85
2022/10/07 09:35:25;;;;;;;8.33;1.32;;;;;;;23.72;37.92;100762.41;1653226;86;21063;-91
2022/10/07 09:37:57;;;;;;;6.42;1.32;;;;;;;23.92;37.83;100772.36;1653305;86;21118;-78
2022/10/07 09:40:31;;;;;;;4.78;1.40;;;;;;;24.08;35.26;100767.99;1653530;85;21047;-88
2022/10/07 09:42:59;;;;;;;9.10;1.67;;;;;;;24.04;36.94;100768.53;1653220;86;21943;-77
2022/10/07 09:45:31;;;;;;;3.33;1.02;;;;;;;23.89;36.83;100766.09;1652335;86;21019;-83
2022/10/07 09:48:06;;;;;;;6.65;1.47;;;;;;;23.95;35.64;100760.38;1653417;86;21063;-80
2022/10/07 09:50:40;;;;;;;8.33;1.32;;;;;;;23.92;36.98;100763.13;1653115;86;21055;-79
2022/10/07 09:53:20;;;;;;;4.85;1.50;;;;;;;23.96;37.03;100756.98;1653464;86;21095;-91
2022/10/07 09:55:48;;;;;;;5.37;1.50;;;;;;;24.14;36.84;100752.45;1653401;86;21811;-90
2022/10/07 09:58:27;;;;;;;7.25;1.30;;;;;;;24.48;36.32;100751.94;1664391;85;21031;-88
2022/10/07 10:00:59;;;;;;;8.70;1.35;;;;;;;24.60;33.48;100746.67;1653636;86;20951;-88
2022/10/07 10:03:35;;;;;;;5.72;1.62;;;;;;;24.08;34.14;100744.15;1654172;85;21086;-83
2022/10/07 10:06:06;;;;;;;5.97;1.40;;;;;;;23.73;35.20;100734.59;1653220;86;21090;-79
2022/10/07 10:08:37;;;;;;;11.25;1.22;;;;;;;23.81;36.08;100736.91;1653439;86;21127;-78
2022/10/07 10:11:24;;;;;;;9.85;1.50;;;;;;;23.95;33.33;100728.13;1653235;86;20999;-77
2022/10/07 10:13:53;;;;;;;4.17;0.90;;;;;;;24.00;33.34;100738.22;1653012;85;21122;-82
2022/10/07 10:16:36;;;;;;;6.53;1.07;;;;;;;23.74;31.46;100732.00;1652556;86;21490;-76
2022/10/07 10:19:07;;;;;;;5.20;1.20;;;;;;;23.52;31.34;100730.03;1635359;86;21042;-72
2022/10/07 10:21:39;;;;;;;4.62;1.45;;;;;;;23.38;32.08;100720.19;1634092;86;21803;-73
2022/10/07 10:24:15;;;;;;;6.22;1.12;;;;;;;23.58;33.07;100720.96;1654105;86;20991;-72
2022/10/07 10:26:56;;;;;;;2.08;0.80;;;;;;;23.77;32.05;100725.64;1654025;86;21557;-72
2022/10/07 10:30:06;;;;;;;6.78;0.90;;;;;;;23.68;31.92;100716.72;1654097;86;21035;-75
2022/10/07 10:33:11;;;;;;;6.58;1.00;;;;;;;23.77;33.82;100720.62;1621434;87;21014;-78
2022/10/07 10:35:59;;;;;;;6.15;0.95;;;;;;;24.01;32.76;100721.61;1654462;86;21450;-84
2022/10/07 10:39:00;;;;;;;3.83;1.15;;;;;;;24.13;34.11;100724.19;1645239;86;20979;-79
2022/10/07 10:41:47;;;;;;;1.95;0.88;;;;;;;24.36;33.24;100718.50;1654085;86;20975;-86
2022/10/07 10:44:41;;;;;;;3.10;1.20;;;;;;;24.56;33.05;100712.14;1653886;86;20939;-83
2022/10/07 10:47:39;;;;;;;4.37;1.05;;;;;;;24.61;31.90;100720.22;1653962;86;20959;-85
2022/10/07 10:50:26;;;;;;;8.50;1.00;;;;;;;24.52;32.38;100708.48;1630832;88;21153;-89
2022/10/07 10:53:33;;;;;;;1.98;1.15;;;;;;;24.58;31.43;100709.76;1653920;86;21034;-83
2022/10/07 10:56:21;;;;;;;3.80;1.50;;;;;;;24.53;32.09;100707.28;1653669;86;20923;-81
2022/10/07 10:59:22;;;;;;;6.72;1.85;;;;;;;24.36;31.83;100698.85;1643349;86;21003;-76
2022/10/07 11:01:57;;;;;;;7.95;1.52;;;;;;;24.19;32.50;100689.60;1654152;86;21034;-90
2022/10/07 11:04:44;;;;;;;4.40;1.20;;;;;;;24.34;32.76;100699.23;1653944;86;21545;-88
2022/10/07 11:07:22;;;;;;;6.10;1.75;;;;;;;24.66;32.51;100696.02;1654055;86;20932;-77
2022/10/07 11:09:53;;;;;;;5.05;1.30;;;;;;;24.91;32.57;100688.66;1653990;86;20987;-72
2022/10/07 11:12:37;;;;;;;3.30;1.37;;;;;;;25.11;32.19;100687.88;1654057;86;20923;-75
2022/10/07 11:15:17;;;;;;;2.95;1.20;;;;;;;25.32;30.28;100676.03;1653948;86;20935;-82
2022/10/07 11:17:44;;;;;;;5.83;1.42;;;;;;;25.19;30.23;100676.11;1652841;86;21377;-73
2022/10/07 11:20:42;;;;;;;8.33;1.37;;;;;;;25.05;29.67;100675.98;1654211;85;21434;-73
2022/10/07 11:23:22;;;;;;;3.27;1.20;;;;;;;24.69;30.52;100684.02;1644766;86;21502;-74
2022/10/07 11:26:05;;;;;;;4.58;1.60;;;;;;;24.58;30.06;100681.69;1600084;89;20988;-72
2022/10/07 11:28:34;;;;;;;4.40;1.10;;;;;;;24.66;31.01;100672.16;1586902;88;21555;-71
2022/10/07 11:31:20;;;;;;;2.95;1.10;;;;;;;24.79;31.48;100674.10;1641914;86;21231;-72
2022/10/07 11:33:59;;;;;;;7.15;1.52;;;;;;;24.91;30.30;100663.97;1654697;85;20906;-76
2022/10/07 11:36:52;;;;;;;5.12;1.30;;;;;;;24.90;30.84;100667.37;1650889;86;20969;-82
2022/10/07 11:39:18;;;;;;;6.78;1.37;;;;;;;25.01;32.02;100668.33;1648770;87;21044;-76
2022/10/07 11:41:51;;;;;;;5.30;1.35;;;;;;;25.18;30.54;100657.64;1645580;87;21539;-77
2022/10/07 11:44:26;;;;;;;4.78;1.62;;;;;;;25.30;30.09;100664.37;1645313;87;21208;-75
2022/10/07 11:46:53;;;;;;;18.62;3.58;;;;;;;25.59;30.68;100661.16;1645298;87;20984;-78